Time;durP1;ratioP1;P1;durP2;ratioP2;P2;SDS_P1;SDS_P2;PMS_P1;PMS_P2;Temp;Humidity;BMP_temperature;BMP_pressure;BME280_temperature;BME280_humidity;BME280_pressure;Samples;Min_cycle;Max_cycle;Signal;HPM_P1;HPM_P2
2021/10/31 00:03:52;;;;;;;52.17;32.28;;;8.70;99.90;;;;;;4954950;29;20364;-84
2021/10/31 00:06:20;;;;;;;50.50;35.00;;;8.60;99.90;;;;;;4955291;29;20050;-83
2021/10/31 00:08:48;;;;;;;51.25;32.97;;;8.60;99.90;;;;;;4922417;29;20158;-86
2021/10/31 00:11:40;;;;;;;50.92;32.30;;;8.40;99.90;;;;;;4924168;29;20055;-86
2021/10/31 00:14:08;;;;;;;46.67;33.08;;;8.40;99.90;;;;;;4939022;29;20134;-85
2021/10/31 00:16:36;;;;;;;47.90;32.58;;;8.50;99.90;;;;;;4937517;29;20051;-84
2021/10/31 00:19:04;;;;;;;53.25;33.20;;;8.50;99.90;;;;;;4937347;29;20058;-86
2021/10/31 00:21:37;;;;;;;55.42;36.00;;;8.40;99.90;;;;;;4937198;29;20059;-83
2021/10/31 00:24:09;;;;;;;57.58;35.00;;;8.30;99.90;;;;;;4921665;29;20058;-81
2021/10/31 00:26:45;;;;;;;54.25;34.42;;;8.50;99.90;;;;;;4937833;29;20043;-84
2021/10/31 00:29:12;;;;;;;49.75;35.45;;;8.60;99.90;;;;;;4936160;29;20077;-82
2021/10/31 00:31:40;;;;;;;51.22;35.58;;;8.50;99.90;;;;;;4956092;28;20045;-82
2021/10/31 00:34:07;;;;;;;54.15;35.85;;;8.60;99.90;;;;;;4956187;28;20114;-82
2021/10/31 00:36:37;;;;;;;54.03;34.03;;;8.50;99.90;;;;;;4973414;28;20125;-84
2021/10/31 00:39:05;;;;;;;61.00;37.20;;;8.40;99.90;;;;;;4940307;28;20402;-83
2021/10/31 00:41:33;;;;;;;59.63;38.75;;;8.40;99.90;;;;;;4941349;28;20051;-85
2021/10/31 00:44:07;;;;;;;63.45;37.65;;;8.30;99.90;;;;;;4941276;28;20082;-84
2021/10/31 00:46:47;;;;;;;57.35;36.75;;;8.30;99.90;;;;;;4958210;28;20043;-85
2021/10/31 00:49:14;;;;;;;59.40;38.47;;;8.10;99.90;;;;;;4956164;28;20039;-83
2021/10/31 00:59:24;;;;;;;53.63;37.35;;;8.10;99.90;;;;;;4973793;28;20426;-85
2021/10/31 01:06:41;;;;;;;65.18;37.92;;;8.30;99.90;;;;;;4956566;28;20359;-85
2021/10/31 01:09:33;;;;;;;52.33;36.35;;;8.20;99.90;;;;;;4953939;28;20375;-83
2021/10/31 01:12:32;;;;;;;61.60;36.25;;;8.30;99.90;;;;;;4955626;28;20137;-81
2021/10/31 01:15:23;;;;;;;51.45;35.38;;;8.40;99.90;;;;;;4973333;28;20038;-80
2021/10/31 01:17:59;;;;;;;;;;;8.40;99.90;;;;;;4972812;28;20452;-81
2021/10/31 01:21:01;;;;;;;57.92;36.92;;;8.20;99.90;;;;;;4973128;28;20346;-84
2021/10/31 01:24:25;;;;;;;53.15;36.70;;;8.20;99.90;;;;;;4958275;28;20475;-84
2021/10/31 01:27:38;;;;;;;56.47;35.63;;;8.10;99.90;;;;;;4973003;28;20070;-83
2021/10/31 01:30:44;;;;;;;50.08;34.38;;;7.90;99.90;;;;;;4965533;28;20485;-81
2021/10/31 01:33:48;;;;;;;50.08;34.05;;;7.70;99.90;;;;;;4923744;28;20051;-82
2021/10/31 01:36:25;;;;;;;46.40;31.15;;;7.70;99.90;;;;;;4972942;28;20470;-82
2021/10/31 01:39:19;;;;;;;51.13;32.20;;;7.90;99.90;;;;;;4955358;28;20089;-81
2021/10/31 01:42:08;;;;;;;59.53;35.38;;;8.00;99.90;;;;;;4959847;28;20515;-81
2021/10/31 01:44:51;;;;;;;50.67;36.33;;;8.00;99.90;;;;;;4960043;28;20053;-82
2021/10/31 01:47:31;;;;;;;54.40;37.10;;;8.00;99.90;;;;;;4960056;28;20054;-82
2021/10/31 01:50:40;;;;;;;59.57;39.90;;;8.00;99.90;;;;;;4960853;28;20114;-86
2021/10/31 01:53:29;;;;;;;60.53;39.25;;;7.80;99.90;;;;;;4943595;28;20066;-85
2021/10/31 01:56:12;;;;;;;57.47;37.42;;;7.90;99.90;;;;;;4976606;28;20046;-81
2021/10/31 01:58:46;;;;;;;61.70;39.33;;;7.90;99.90;;;;;;4959213;28;20118;-80
2021/10/31 02:01:16;;;;;;;63.03;40.63;;;7.90;99.90;;;;;;4959251;28;20061;-81
2021/10/31 02:03:47;;;;;;;63.42;40.25;;;7.90;99.90;;;;;;4976336;28;20094;-82
2021/10/31 02:06:14;;;;;;;;;;;7.80;99.90;;;;;;4944187;28;20050;-86
2021/10/31 02:08:45;;;;;;;54.05;36.92;;;7.90;99.90;;;;;;4959712;28;19926;-82
2021/10/31 02:11:16;;;;;;;65.55;39.22;;;7.90;99.90;;;;;;4976187;28;20114;-80
2021/10/31 02:13:52;;;;;;;65.80;40.55;;;7.90;99.90;;;;;;4960516;28;20055;-85
2021/10/31 02:16:21;;;;;;;59.13;38.88;;;7.90;99.90;;;;;;4944121;28;20046;-84
2021/10/31 02:19:01;;;;;;;61.58;40.05;;;7.90;99.90;;;;;;4977253;28;20046;-81
2021/10/31 02:21:35;;;;;;;59.22;38.75;;;7.80;99.90;;;;;;4958880;28;20043;-78
2021/10/31 02:24:08;;;;;;;55.03;35.40;;;7.80;99.90;;;;;;4976432;28;20074;-83
2021/10/31 02:26:36;;;;;;;54.00;34.38;;;7.70;99.90;;;;;;4959703;28;20372;-80
2021/10/31 02:29:08;;;;;;;53.38;34.85;;;7.60;99.90;;;;;;4976392;28;20046;-83
2021/10/31 02:31:37;;;;;;;53.20;34.85;;;7.60;99.90;;;;;;4958304;28;20109;-78
2021/10/31 02:34:06;;;;;;;51.85;34.42;;;7.60;99.90;;;;;;4959223;28;20050;-81
2021/10/31 02:36:34;;;;;;;54.25;32.65;;;7.70;99.90;;;;;;4958561;28;20071;-82
2021/10/31 02:39:06;;;;;;;46.38;32.25;;;7.60;99.90;;;;;;4959101;28;20074;-80
2021/10/31 02:41:35;;;;;;;52.28;33.47;;;7.60;99.90;;;;;;4974692;28;20498;-84
2021/10/31 02:44:04;;;;;;;46.58;32.22;;;7.70;99.90;;;;;;4958491;28;20042;-83
2021/10/31 02:46:35;;;;;;;45.45;31.65;;;7.60;99.90;;;;;;4942426;28;20053;-83
2021/10/31 02:49:05;;;;;;;51.55;34.30;;;7.60;99.90;;;;;;4958872;28;20050;-85
2021/10/31 02:51:59;;;;;;;55.53;32.38;;;7.50;99.90;;;;;;4956880;28;20079;-81
2021/10/31 02:54:55;;;;;;;52.00;32.50;;;7.30;99.90;;;;;;4942264;28;20050;-80
2021/10/31 02:57:53;;;;;;;48.13;31.05;;;7.30;99.90;;;;;;4942463;28;20057;-79
2021/10/31 03:00:21;;;;;;;44.42;29.77;;;7.20;99.90;;;;;;4976041;28;20471;-79
2021/10/31 03:02:49;;;;;;;44.10;30.20;;;7.40;99.90;;;;;;4958291;28;20138;-83
2021/10/31 03:05:16;;;;;;;52.25;30.52;;;7.40;99.90;;;;;;4975767;28;20051;-80
2021/10/31 03:07:46;;;;;;;45.20;29.10;;;7.30;99.90;;;;;;4975083;28;20031;-82
2021/10/31 03:10:18;;;;;;;47.20;29.98;;;7.30;99.90;;;;;;4974925;28;20376;-86
2021/10/31 03:12:49;;;;;;;42.65;29.40;;;7.30;99.90;;;;;;4943356;28;20046;-88
2021/10/31 03:15:28;;;;;;;45.65;30.35;;;7.30;99.90;;;;;;4960259;28;20053;-86
2021/10/31 03:18:53;;;;;;;46.47;30.35;;;7.40;99.90;;;;;;4974989;28;20394;-86
2021/10/31 03:21:20;;;;;;;41.92;27.10;;;7.30;99.90;;;;;;4957382;28;20053;-87
2021/10/31 03:23:53;;;;;;;41.42;26.85;;;7.00;99.90;;;;;;4977671;28;20042;-83
2021/10/31 03:26:27;;;;;;;39.08;25.60;;;7.00;99.90;;;;;;4958514;28;20125;-86
2021/10/31 03:28:57;;;;;;;44.20;25.90;;;6.80;99.90;;;;;;4942479;28;20494;-87
2021/10/31 03:31:25;;;;;;;30.83;23.58;;;6.70;99.90;;;;;;4958086;28;20146;-86
2021/10/31 03:33:52;;;;;;;37.28;25.00;;;6.80;99.90;;;;;;4958747;28;20057;-85
2021/10/31 03:36:19;;;;;;;41.22;26.02;;;6.70;99.90;;;;;;4958256;28;20043;-84
2021/10/31 03:38:46;;;;;;;40.42;24.73;;;6.90;99.90;;;;;;4974361;28;20101;-84
2021/10/31 03:41:14;;;;;;;33.42;23.10;;;7.10;99.90;;;;;;4974358;28;20046;-79
2021/10/31 03:43:41;;;;;;;34.92;22.40;;;6.90;99.90;;;;;;4957164;28;20129;-81
2021/10/31 03:46:09;;;;;;;32.97;21.77;;;6.80;99.90;;;;;;4956999;28;20054;-81
2021/10/31 03:48:57;;;;;;;36.78;23.65;;;6.90;99.90;;;;;;4956606;28;20046;-84
2021/10/31 03:51:26;;;;;;;32.13;22.13;;;6.90;99.90;;;;;;4958313;28;20510;-85
2021/10/31 03:54:27;;;;;;;35.40;20.60;;;6.90;99.90;;;;;;4941479;28;20050;-81
2021/10/31 03:57:22;;;;;;;31.50;21.42;;;6.70;99.90;;;;;;4973150;28;20045;-79
2021/10/31 03:59:50;;;;;;;30.42;20.60;;;6.80;99.90;;;;;;4974332;28;20231;-81
2021/10/31 04:02:18;;;;;;;31.55;20.60;;;6.90;99.90;;;;;;4957085;28;20446;-83
2021/10/31 04:04:52;;;;;;;29.70;20.30;;;6.90;99.90;;;;;;4957939;28;20042;-84
2021/10/31 04:07:19;;;;;;;30.40;20.48;;;6.90;99.90;;;;;;4942181;28;20085;-87
2021/10/31 04:09:56;;;;;;;30.67;20.52;;;7.00;99.90;;;;;;4941530;28;20102;-85
2021/10/31 04:12:27;;;;;;;30.52;19.73;;;6.60;99.90;;;;;;4942305;28;20062;-85
2021/10/31 04:14:54;;;;;;;;;;;6.50;99.90;;;;;;4942344;28;20053;-86
2021/10/31 04:17:31;;;;;;;28.40;19.17;;;6.60;99.90;;;;;;4941861;28;19933;-86
2021/10/31 04:19:59;;;;;;;27.33;19.55;;;6.60;99.90;;;;;;4941678;28;20434;-85
2021/10/31 04:22:30;;;;;;;27.63;19.60;;;6.60;99.90;;;;;;4956461;28;20078;-81
2021/10/31 04:25:22;;;;;;;29.55;20.50;;;6.60;99.90;;;;;;4957019;28;20043;-85
2021/10/31 04:27:50;;;;;;;33.30;20.77;;;6.50;99.90;;;;;;4956659;28;20047;-82
2021/10/31 04:30:17;;;;;;;30.40;21.30;;;6.40;99.90;;;;;;4974044;28;20475;-84
2021/10/31 04:32:45;;;;;;;30.27;20.50;;;6.50;99.90;;;;;;4956699;28;20430;-85
2021/10/31 04:35:12;;;;;;;30.88;21.42;;;6.40;99.90;;;;;;4957519;28;20070;-84
2021/10/31 04:37:43;;;;;;;31.42;20.88;;;6.50;99.90;;;;;;4973242;28;20054;-83
2021/10/31 04:40:25;;;;;;;30.25;20.92;;;6.50;99.90;;;;;;4955055;28;20039;-82
2021/10/31 04:42:53;;;;;;;30.42;21.08;;;6.50;99.90;;;;;;4972166;28;20042;-80
2021/10/31 04:45:21;;;;;;;35.22;23.05;;;6.50;99.90;;;;;;4973161;28;20039;-80
2021/10/31 04:47:48;;;;;;;29.95;21.88;;;6.50;99.90;;;;;;4956345;28;20487;-81
2021/10/31 04:50:18;;;;;;;34.88;22.67;;;6.50;99.90;;;;;;4956296;28;20035;-86
2021/10/31 04:52:47;;;;;;;33.97;21.77;;;6.50;99.90;;;;;;4957606;28;20042;-84
2021/10/31 04:55:20;;;;;;;32.40;22.60;;;6.50;99.90;;;;;;4973990;28;20085;-88
2021/10/31 04:57:49;;;;;;;33.85;22.77;;;6.40;99.90;;;;;;4945944;28;20047;-89
2021/10/31 05:00:16;;;;;;;34.78;22.27;;;6.50;99.90;;;;;;4958058;28;20499;-83
2021/10/31 05:02:44;;;;;;;32.17;21.75;;;6.30;99.90;;;;;;4939286;28;20050;-85
2021/10/31 05:05:11;;;;;;;38.33;23.08;;;6.30;99.90;;;;;;4955737;28;20049;-83
2021/10/31 05:07:39;;;;;;;34.97;23.77;;;6.40;99.90;;;;;;4972637;28;20046;-83
2021/10/31 05:10:07;;;;;;;32.90;22.60;;;6.40;99.90;;;;;;4973006;28;20444;-81
2021/10/31 05:12:34;;;;;;;32.95;22.25;;;6.40;99.90;;;;;;4955030;28;20043;-85
2021/10/31 05:15:02;;;;;;;28.98;20.73;;;6.30;99.90;;;;;;4939119;28;20070;-84
2021/10/31 05:17:32;;;;;;;30.83;21.73;;;6.40;99.90;;;;;;4972880;28;20270;-83
2021/10/31 05:19:59;;;;;;;33.33;22.30;;;6.30;99.90;;;;;;4971547;28;20126;-80
2021/10/31 05:22:27;;;;;;;31.77;22.48;;;6.20;99.90;;;;;;4939504;28;20047;-81
2021/10/31 05:24:54;;;;;;;33.53;22.13;;;6.30;99.90;;;;;;4955450;28;20154;-80
2021/10/31 05:27:21;;;;;;;31.23;21.40;;;6.40;99.90;;;;;;4939300;28;20082;-83
2021/10/31 05:29:49;;;;;;;28.38;20.08;;;6.30;99.90;;;;;;4955019;28;20045;-79
2021/10/31 05:32:19;;;;;;;33.17;20.30;;;6.40;99.90;;;;;;4955871;28;20056;-85
2021/10/31 05:34:46;;;;;;;25.90;18.50;;;6.40;99.90;;;;;;4956008;28;20121;-82
2021/10/31 05:37:14;;;;;;;27.88;18.98;;;6.20;99.90;;;;;;4971508;28;20078;-81
2021/10/31 05:39:41;;;;;;;28.02;19.20;;;6.30;99.90;;;;;;4971356;28;20043;-81
2021/10/31 05:42:08;;;;;;;44.63;29.90;;;6.50;99.90;;;;;;4970995;28;20046;-81
2021/10/31 05:44:36;;;;;;;34.13;23.95;;;6.70;99.90;;;;;;4955290;28;20050;-82
2021/10/31 05:47:06;;;;;;;49.78;30.25;;;6.70;99.90;;;;;;4956002;28;20055;-86
2021/10/31 05:49:33;;;;;;;36.95;23.98;;;6.80;99.90;;;;;;4971271;28;20043;-82
2021/10/31 05:52:04;;;;;;;34.25;23.23;;;6.60;99.90;;;;;;4955304;28;20043;-83
2021/10/31 05:54:33;;;;;;;37.65;25.45;;;6.50;99.90;;;;;;4972535;28;20061;-80
2021/10/31 05:57:01;;;;;;;35.58;22.30;;;6.50;99.90;;;;;;4939620;28;20042;-79
2021/10/31 05:59:32;;;;;;;26.90;19.35;;;6.50;99.90;;;;;;4972025;28;20050;-78
2021/10/31 06:02:00;;;;;;;30.80;19.70;;;6.70;99.90;;;;;;4972375;28;20050;-79
2021/10/31 06:04:28;;;;;;;29.73;19.00;;;6.70;99.90;;;;;;4972627;28;20438;-78
2021/10/31 06:06:56;;;;;;;29.98;19.90;;;6.80;99.90;;;;;;4972866;28;20118;-82
2021/10/31 06:09:23;;;;;;;30.60;20.10;;;6.90;99.90;;;;;;4972677;28;20089;-82
2021/10/31 06:11:50;;;;;;;29.38;19.58;;;6.80;99.90;;;;;;4973611;28;20039;-77
2021/10/31 06:14:18;;;;;;;30.38;21.02;;;6.60;99.90;;;;;;4973214;28;20039;-84
2021/10/31 06:16:46;;;;;;;32.72;20.55;;;6.50;99.90;;;;;;4973643;28;20129;-78
2021/10/31 06:19:13;;;;;;;30.95;20.48;;;6.80;99.90;;;;;;4955409;28;20074;-83
2021/10/31 06:21:41;;;;;;;28.17;19.35;;;7.00;99.90;;;;;;4972458;28;20518;-77
2021/10/31 06:24:08;;;;;;;28.52;20.73;;;7.10;99.90;;;;;;4955008;28;20074;-80
2021/10/31 06:26:35;;;;;;;29.70;19.85;;;7.00;99.90;;;;;;4956994;28;20054;-79
2021/10/31 06:29:02;;;;;;;28.75;19.85;;;7.30;99.90;;;;;;4975776;28;20061;-77
2021/10/31 06:31:30;;;;;;;30.17;20.45;;;7.40;99.90;;;;;;4974292;28;20050;-80
2021/10/31 06:33:57;;;;;;;27.65;20.52;;;7.40;99.90;;;;;;4975563;28;20058;-82
2021/10/31 06:36:24;;;;;;;29.65;19.65;;;7.30;99.90;;;;;;4958062;28;20054;-83
2021/10/31 06:38:52;;;;;;;28.60;21.17;;;7.20;99.90;;;;;;4974344;28;20236;-82
2021/10/31 06:41:19;;;;;;;28.27;21.02;;;7.20;99.90;;;;;;4975524;28;20062;-84
2021/10/31 06:43:46;;;;;;;32.75;21.90;;;7.40;99.90;;;;;;4958588;28;20038;-83
2021/10/31 06:46:14;;;;;;;29.77;20.13;;;7.50;99.90;;;;;;4958228;28;20049;-82
2021/10/31 06:48:41;;;;;;;37.53;22.80;;;7.70;99.90;;;;;;4958341;28;20050;-83
2021/10/31 06:51:08;;;;;;;30.65;21.55;;;7.80;99.90;;;;;;4959108;28;20043;-82
2021/10/31 06:53:36;;;;;;;35.00;22.20;;;7.90;99.90;;;;;;4973440;28;20053;-79
2021/10/31 06:56:03;;;;;;;32.42;21.92;;;7.80;99.90;;;;;;4973784;28;20046;-79
2021/10/31 06:58:31;;;;;;;34.47;22.50;;;7.70;99.90;;;;;;4958227;28;20175;-80
2021/10/31 07:00:58;;;;;;;32.30;22.52;;;7.70;99.90;;;;;;4975981;28;20066;-80
2021/10/31 07:03:26;;;;;;;36.38;24.85;;;7.60;99.90;;;;;;4975578;28;20054;-79
2021/10/31 07:05:53;;;;;;;32.72;24.13;;;7.80;99.90;;;;;;4974526;28;20051;-79
2021/10/31 07:08:21;;;;;;;32.78;22.83;;;8.10;99.90;;;;;;4959039;28;20467;-88
2021/10/31 07:10:48;;;;;;;29.20;21.95;;;8.20;99.90;;;;;;4959333;28;20124;-86
2021/10/31 07:13:16;;;;;;;33.13;23.17;;;8.10;99.90;;;;;;4975680;28;20459;-81
2021/10/31 07:15:43;;;;;;;32.22;23.65;;;8.30;99.90;;;;;;4975520;28;20047;-84
2021/10/31 07:18:10;;;;;;;38.40;25.25;;;8.80;99.90;;;;;;4957939;28;20063;-83
2021/10/31 07:20:38;;;;;;;36.63;24.70;;;9.00;99.90;;;;;;4976000;28;20053;-80
2021/10/31 07:23:05;;;;;;;39.78;23.70;;;9.20;99.90;;;;;;4973665;28;20070;-83
2021/10/31 07:25:32;;;;;;;36.60;23.25;;;9.50;99.90;;;;;;4974551;28;20074;-81
2021/10/31 07:28:00;;;;;;;33.63;22.20;;;9.80;99.90;;;;;;4957290;28;20137;-82
2021/10/31 07:30:28;;;;;;;29.38;21.88;;;9.70;99.90;;;;;;4972860;28;20063;-85
2021/10/31 07:33:00;;;;;;;26.98;20.63;;;9.90;99.90;;;;;;4957622;28;20473;-84
2021/10/31 07:35:29;;;;;;;28.98;20.60;;;9.90;99.90;;;;;;4973707;28;20170;-81
2021/10/31 07:37:57;;;;;;;27.55;19.73;;;10.00;99.90;;;;;;4956872;28;20495;-82
2021/10/31 07:40:25;;;;;;;28.48;20.42;;;10.10;99.90;;;;;;4957599;28;20042;-86
2021/10/31 07:42:55;;;;;;;27.42;19.67;;;10.20;99.90;;;;;;4974574;28;20039;-84
2021/10/31 07:45:38;;;;;;;27.90;19.40;;;10.50;99.90;;;;;;4960019;28;20053;-86
2021/10/31 07:48:06;;;;;;;30.50;20.35;;;10.60;99.90;;;;;;4957123;28;20123;-85
2021/10/31 07:50:36;;;;;;;29.52;22.30;;;10.80;99.90;;;;;;4974222;28;20121;-81
2021/10/31 07:53:13;;;;;;;33.25;22.20;;;11.00;99.90;;;;;;4941416;28;20444;-82
2021/10/31 07:55:41;;;;;;;33.00;22.55;;;11.30;99.90;;;;;;4972637;28;20074;-83
2021/10/31 07:58:09;;;;;;;33.90;22.38;;;11.50;99.90;;;;;;4974079;28;20057;-87
2021/10/31 08:00:37;;;;;;;110.75;66.57;;;11.90;99.90;;;;;;4941687;28;20050;-85
2021/10/31 08:03:06;;;;;;;115.05;67.82;;;12.30;99.90;;;;;;4957749;28;20070;-85
2021/10/31 08:05:34;;;;;;;55.50;39.70;;;12.70;99.90;;;;;;4942032;28;20495;-82
2021/10/31 08:08:01;;;;;;;57.38;36.95;;;13.20;99.90;;;;;;4974446;28;20045;-84
2021/10/31 08:10:29;;;;;;;54.78;36.55;;;13.30;99.90;;;;;;4957563;28;20046;-85
2021/10/31 08:12:56;;;;;;;41.75;28.45;;;13.00;99.90;;;;;;4956810;28;20491;-82
2021/10/31 08:15:24;;;;;;;37.40;26.75;;;13.20;99.90;;;;;;4973987;28;20477;-81
2021/10/31 08:17:51;;;;;;;31.42;22.98;;;13.80;99.90;;;;;;4956418;28;20381;-80
2021/10/31 08:20:19;;;;;;;30.88;22.67;;;13.40;99.90;;;;;;4956644;28;20459;-81
2021/10/31 08:22:46;;;;;;;34.58;23.20;;;13.40;99.90;;;;;;4956226;28;20054;-79
2021/10/31 08:25:14;;;;;;;29.60;21.83;;;13.90;99.90;;;;;;4940425;28;20462;-82
2021/10/31 08:27:41;;;;;;;34.67;23.13;;;14.40;99.90;;;;;;4956324;28;20086;-85
2021/10/31 08:30:09;;;;;;;31.35;20.90;;;13.80;99.90;;;;;;4958004;28;20058;-90
2021/10/31 08:32:44;;;;;;;225.60;33.08;;;13.80;99.90;;;;;;4959040;28;20438;-85
2021/10/31 08:35:11;;;;;;;31.35;22.77;;;14.40;99.90;;;;;;4976639;28;20442;-83
2021/10/31 08:37:38;;;;;;;32.20;23.02;;;14.10;99.90;;;;;;4973279;28;20065;-81
2021/10/31 08:40:06;;;;;;;34.13;24.05;;;13.80;99.90;;;;;;4972131;28;20138;-85
2021/10/31 08:42:37;;;;;;;33.67;23.30;;;13.70;99.90;;;;;;4956816;28;20065;-82
2021/10/31 08:45:06;;;;;;;33.13;23.05;;;13.60;99.90;;;;;;4972884;28;20121;-81
2021/10/31 08:47:34;;;;;;;33.05;21.55;;;13.90;99.90;;;;;;4972329;28;20063;-83
2021/10/31 08:50:03;;;;;;;35.72;22.83;;;13.90;99.90;;;;;;4939705;28;20046;-86
2021/10/31 08:52:30;;;;;;;51.22;33.30;;;13.90;99.90;;;;;;4955170;28;20391;-84
2021/10/31 08:54:57;;;;;;;60.90;38.90;;;14.80;99.90;;;;;;4991634;28;20057;-83
2021/10/31 08:57:28;;;;;;;76.10;50.53;;;15.20;99.90;;;;;;4994012;28;20042;-80
2021/10/31 08:59:55;;;;;;;35.00;24.30;;;15.60;98.90;;;;;;4975433;28;20120;-84
2021/10/31 09:02:22;;;;;;;27.27;20.00;;;15.50;98.00;;;;;;4974761;28;20054;-80
2021/10/31 09:04:51;;;;;;;27.75;20.80;;;14.90;98.50;;;;;;4992415;28;20359;-82
2021/10/31 09:07:34;;;;;;;25.65;20.10;;;15.00;98.80;;;;;;4993306;28;20442;-86
2021/10/31 09:10:04;;;;;;;28.27;20.15;;;14.30;99.70;;;;;;4961398;28;20117;-86
2021/10/31 09:12:32;;;;;;;29.80;20.17;;;14.60;99.90;;;;;;4974983;28;20505;-84
2021/10/31 09:14:59;;;;;;;29.05;18.45;;;15.00;98.60;;;;;;4976103;28;20141;-83
2021/10/31 09:17:27;;;;;;;32.00;20.42;;;15.20;98.10;;;;;;4975742;28;20096;-81
2021/10/31 09:19:55;;;;;;;29.20;20.10;;;15.90;98.10;;;;;;4992788;28;20047;-78
2021/10/31 09:22:23;;;;;;;24.42;18.60;;;16.30;97.50;;;;;;4992805;28;20058;-80
2021/10/31 09:24:50;;;;;;;25.20;18.63;;;15.90;96.30;;;;;;4994243;28;20472;-81
2021/10/31 09:27:19;;;;;;;26.30;17.83;;;16.10;96.20;;;;;;4994651;28;20368;-86
2021/10/31 09:29:47;;;;;;;28.50;19.05;;;16.40;96.30;;;;;;4991392;28;20050;-79
2021/10/31 09:32:14;;;;;;;34.22;19.40;;;16.10;95.80;;;;;;4955684;28;20150;-82
2021/10/31 09:34:43;;;;;;;23.77;17.70;;;16.40;96.30;;;;;;4956509;28;20046;-79
2021/10/31 09:37:11;;;;;;;28.00;17.10;;;16.70;97.10;;;;;;4972371;28;20047;-79
2021/10/31 09:39:38;;;;;;;26.15;17.33;;;17.00;95.00;;;;;;4972704;28;20406;-79
2021/10/31 09:42:05;;;;;;;23.17;16.25;;;17.30;94.70;;;;;;4955584;28;20082;-80
2021/10/31 09:44:47;;;;;;;21.58;16.00;;;17.40;94.20;;;;;;4974034;28;20348;-87
2021/10/31 09:47:26;;;;;;;23.23;16.48;;;17.30;93.10;;;;;;4972866;28;20049;-81
2021/10/31 09:49:54;;;;;;;23.00;15.77;;;17.60;93.10;;;;;;4955514;28;20047;-87
2021/10/31 09:52:25;;;;;;;22.00;15.57;;;18.00;94.20;;;;;;4961505;28;20105;-80
2021/10/31 09:54:53;;;;;;;21.88;15.65;;;18.00;93.70;;;;;;4953529;29;20057;-86
2021/10/31 09:57:20;;;;;;;23.52;15.75;;;18.30;91.70;;;;;;4953995;29;20126;-81
2021/10/31 09:59:53;;;;;;;21.60;15.00;;;17.90;91.20;;;;;;4941965;28;20043;-84
2021/10/31 10:05:31;;;;;;;18.85;14.68;;;17.40;91.30;;;;;;4937205;29;20051;-84
2021/10/31 10:08:13;;;;;;;23.58;16.10;;;17.40;90.60;;;;;;4941672;29;20146;-89
2021/10/31 10:10:46;;;;;;;20.52;13.82;;;17.60;89.50;;;;;;4925217;29;20047;-86
2021/10/31 10:13:32;;;;;;;21.13;14.57;;;17.70;88.20;;;;;;4924689;29;20090;-85
2021/10/31 10:16:20;;;;;;;22.65;15.20;;;17.70;87.80;;;;;;4923241;29;20470;-83
2021/10/31 10:18:48;;;;;;;23.50;15.02;;;18.00;87.80;;;;;;4940415;29;20073;-85
2021/10/31 10:21:22;;;;;;;22.40;14.50;;;18.00;87.50;;;;;;4923697;29;20043;-81
2021/10/31 10:24:07;;;;;;;24.50;14.18;;;18.30;85.80;;;;;;4956176;29;20133;-79
2021/10/31 10:26:44;;;;;;;15.13;10.95;;;18.00;85.30;;;;;;4938973;29;20651;-83
2021/10/31 10:29:19;;;;;;;23.45;13.10;;;17.80;86.10;;;;;;4939512;29;20044;-83
2021/10/31 10:31:50;;;;;;;19.23;12.55;;;17.80;86.40;;;;;;4956429;28;20055;-82
2021/10/31 10:34:35;;;;;;;17.92;12.23;;;18.20;85.70;;;;;;4963236;28;20127;-81
2021/10/31 10:37:08;;;;;;;17.55;12.30;;;18.20;84.70;;;;;;4963829;28;20463;-80
2021/10/31 10:39:37;;;;;;;21.33;12.90;;;18.00;86.40;;;;;;4953304;28;20047;-79
2021/10/31 10:42:06;;;;;;;24.35;16.83;;;18.10;86.40;;;;;;4942436;28;20137;-87
2021/10/31 10:44:36;;;;;;;27.67;20.65;;;18.20;86.00;;;;;;4959253;28;20125;-81
2021/10/31 10:47:22;;;;;;;34.72;24.15;;;19.20;87.00;;;;;;4974408;28;20057;-78
2021/10/31 10:49:51;;;;;;;27.75;19.80;;;19.40;86.20;;;;;;4974653;28;20043;-78
2021/10/31 10:52:40;;;;;;;25.65;19.13;;;18.40;87.10;;;;;;4947469;28;20057;-82
2021/10/31 10:55:14;;;;;;;30.52;23.25;;;18.40;87.20;;;;;;4940150;29;20122;-80
2021/10/31 10:57:45;;;;;;;48.75;34.33;;;19.00;87.90;;;;;;4938812;29;20054;-86
2021/10/31 11:00:15;;;;;;;52.65;37.42;;;19.60;85.40;;;;;;4966173;28;20058;-90
2021/10/31 11:02:43;;;;;;;37.28;25.45;;;19.90;82.30;;;;;;4958211;28;20082;-87
2021/10/31 11:05:13;;;;;;;23.95;17.52;;;20.20;83.10;;;;;;4919280;29;20039;-87
2021/10/31 11:07:45;;;;;;;25.05;17.95;;;20.50;80.60;;;;;;4944453;29;20119;-84
2021/10/31 11:10:25;;;;;;;21.23;16.13;;;19.90;82.70;;;;;;4919566;29;20043;-83
2021/10/31 11:12:56;;;;;;;20.60;15.68;;;19.80;81.90;;;;;;4928130;29;20130;-80
2021/10/31 11:15:26;;;;;;;19.92;14.18;;;19.80;82.20;;;;;;4930913;29;20071;-87
2021/10/31 11:18:02;;;;;;;19.30;13.63;;;20.30;79.80;;;;;;4928718;29;20392;-89
2021/10/31 11:20:33;;;;;;;18.65;13.57;;;20.40;77.90;;;;;;4926764;29;20130;-85
2021/10/31 11:23:02;;;;;;;;;;;20.60;76.00;;;;;;4942557;29;20058;-87
2021/10/31 11:25:32;;;;;;;17.60;11.20;;;20.50;76.40;;;;;;4940746;29;19965;-84
2021/10/31 11:28:03;;;;;;;20.23;13.82;;;20.80;75.60;;;;;;4942910;29;20040;-84
2021/10/31 11:30:32;;;;;;;20.58;12.95;;;21.00;74.10;;;;;;4946001;29;20055;-80
2021/10/31 11:33:02;;;;;;;14.93;11.63;;;20.60;74.60;;;;;;4948275;29;20049;-83
2021/10/31 11:35:30;;;;;;;16.95;11.85;;;21.20;75.40;;;;;;4929947;29;20051;-82
2021/10/31 11:38:00;;;;;;;16.42;11.68;;;21.10;73.30;;;;;;4945110;29;20391;-83
2021/10/31 11:40:39;;;;;;;16.60;11.85;;;21.30;72.40;;;;;;4932178;29;20054;-82
2021/10/31 11:43:14;;;;;;;14.47;10.53;;;20.80;72.10;;;;;;4946571;29;20056;-87
2021/10/31 11:45:44;;;;;;;17.27;11.25;;;20.90;71.80;;;;;;4945443;29;20070;-85
2021/10/31 11:48:20;;;;;;;15.68;11.15;;;21.20;71.20;;;;;;4929980;29;20039;-81
2021/10/31 11:50:59;;;;;;;16.45;11.90;;;21.20;69.80;;;;;;4929668;29;20138;-79
2021/10/31 11:53:32;;;;;;;15.35;11.15;;;20.90;69.40;;;;;;4931826;29;20039;-86
2021/10/31 11:56:04;;;;;;;14.45;9.88;;;20.40;71.10;;;;;;4947192;29;20098;-91
2021/10/31 11:58:35;;;;;;;15.50;10.40;;;20.50;70.80;;;;;;4945677;29;20035;-87
2021/10/31 12:01:12;;;;;;;14.05;9.95;;;20.80;69.90;;;;;;4951656;29;20043;-84
2021/10/31 12:03:44;;;;;;;13.40;10.00;;;20.40;70.30;;;;;;4929868;29;20062;-80
2021/10/31 12:06:26;;;;;;;15.38;9.40;;;20.70;70.90;;;;;;4937693;29;20043;-81
2021/10/31 12:09:05;;;;;;;15.90;10.15;;;20.80;70.50;;;;;;4915954;29;20126;-81
2021/10/31 12:11:32;;;;;;;16.35;10.18;;;21.20;69.60;;;;;;4952543;29;20396;-81
2021/10/31 12:14:01;;;;;;;17.85;9.57;;;21.60;68.60;;;;;;4937063;29;20058;-76
2021/10/31 12:16:29;;;;;;;14.40;9.20;;;21.90;68.50;;;;;;4945016;29;20444;-79
2021/10/31 12:19:09;;;;;;;14.85;10.30;;;21.50;67.20;;;;;;4940246;29;20060;-80
2021/10/31 12:21:38;;;;;;;16.30;9.48;;;21.40;65.90;;;;;;4934612;28;20130;-80
2021/10/31 12:24:13;;;;;;;12.70;8.70;;;23.60;61.10;;;;;;4950499;28;20054;-79
2021/10/31 12:26:49;;;;;;;11.68;8.65;;;26.60;55.30;;;;;;4919305;28;20051;-81
2021/10/31 12:29:20;;;;;;;;;;;29.40;51.80;;;;;;4949240;28;20055;-77
2021/10/31 12:32:01;;;;;;;13.18;8.50;;;29.70;48.90;;;;;;4969520;28;19964;-82
2021/10/31 12:34:41;;;;;;;13.15;8.65;;;30.00;47.10;;;;;;4956308;28;20491;-79
2021/10/31 12:37:26;;;;;;;13.88;8.75;;;28.90;47.00;;;;;;4969876;28;20074;-79
2021/10/31 12:40:11;;;;;;;13.70;7.95;;;27.40;47.50;;;;;;4957614;28;20376;-79
2021/10/31 12:42:57;;;;;;;14.15;9.35;;;28.30;46.70;;;;;;4972914;28;20039;-82
2021/10/31 12:45:27;;;;;;;14.02;9.35;;;29.10;46.60;;;;;;4930962;28;20110;-78
2021/10/31 12:48:01;;;;;;;;;;;29.20;46.00;;;;;;4971943;28;20459;-76
2021/10/31 12:50:30;;;;;;;13.07;8.95;;;27.30;47.40;;;;;;4973019;28;20012;-78
2021/10/31 12:53:06;;;;;;;13.85;9.23;;;24.80;50.50;;;;;;4973596;28;20491;-79
2021/10/31 12:55:33;;;;;;;13.10;9.40;;;23.40;54.00;;;;;;4972946;28;20050;-85
2021/10/31 12:58:07;;;;;;;14.23;10.32;;;23.20;55.10;;;;;;4975372;28;20046;-86
2021/10/31 13:00:53;;;;;;;14.30;9.32;;;23.00;55.60;;;;;;4943505;28;20047;-91
2021/10/31 13:03:22;;;;;;;12.80;9.15;;;23.10;56.20;;;;;;4974501;28;20059;-86
2021/10/31 13:05:55;;;;;;;13.88;9.52;;;23.10;56.00;;;;;;4974301;28;20077;-86
2021/10/31 13:08:23;;;;;;;14.90;9.93;;;22.80;56.50;;;;;;4974101;28;20035;-83
2021/10/31 13:10:53;;;;;;;20.65;15.05;;;22.80;57.00;;;;;;4941068;28;20055;-87
2021/10/31 13:13:23;;;;;;;56.25;43.58;;;23.20;57.20;;;;;;4971809;28;20046;-80
2021/10/31 13:15:57;;;;;;;223.55;151.07;;;23.00;56.40;;;;;;4954873;28;20043;-82
2021/10/31 13:18:32;;;;;;;170.45;126.63;;;23.20;56.10;;;;;;4972071;28;20034;-83
2021/10/31 13:21:11;;;;;;;26.83;18.63;;;24.00;54.50;;;;;;4955683;28;20049;-83